Terminal Aerodrome Forecast
Issued by NWS

Home | Current Version | Previous Version | Text Only | Print | Product List | Glossary On
Versions: 1 2 3 4 5 6 7 8 9 10 11 12 13 14 15 16 17 18 19 20 21 22 23 24 25 26 27
000
FTUS42 KCAE 202300
TAFCUB
TAF
KCUB 202340Z 2100/2124 VRB03KT P6SM SCT011 OVC015
     FM210600 VRB03KT 5SM BR BKN008 OVC011
     FM211200 05004KT P6SM BKN015 OVC025
     FM212000 06005KT P6SM VCSH OVC015=

USA.gov is the U.S. government's official web portal to all federal, state and local government web resources and services.